createdAt,value
2018-07-17T00:00:13.796Z,98123.91
2018-07-17T00:02:42.065Z,98128.00
2018-07-17T00:05:11.753Z,98126.74
2018-07-17T00:07:40.023Z,98132.80
2018-07-17T00:10:08.528Z,98129.38
2018-07-17T00:12:36.957Z,98123.45
2018-07-17T00:15:05.198Z,98128.68
2018-07-17T00:17:34.500Z,98128.96
2018-07-17T00:20:02.701Z,98137.27
2018-07-17T00:22:31.116Z,98136.19
2018-07-17T00:24:59.680Z,98137.52
2018-07-17T00:27:27.959Z,98139.95
2018-07-17T00:29:56.727Z,98141.05
2018-07-17T00:32:25.528Z,98139.11
2018-07-17T00:34:53.805Z,98139.13
2018-07-17T00:37:23.304Z,98136.05
2018-07-17T00:39:51.495Z,98131.05
2018-07-17T00:42:19.798Z,98127.13
2018-07-17T00:44:48.388Z,98133.84
2018-07-17T00:47:17.185Z,98134.70
2018-07-17T00:49:45.394Z,98135.39
2018-07-17T00:52:13.670Z,98134.92
2018-07-17T00:54:42.141Z,98136.91
2018-07-17T00:57:10.601Z,98133.32
2018-07-17T00:59:39.275Z,98126.13
2018-07-17T01:02:13.463Z,98128.95
2018-07-17T01:04:47.288Z,98129.95
2018-07-17T01:07:21.237Z,98132.91
2018-07-17T01:09:55.090Z,98130.94
2018-07-17T01:12:23.456Z,98131.94
2018-07-17T01:14:57.535Z,98127.34
2018-07-17T01:17:26.472Z,98135.86
2018-07-17T01:19:54.746Z,98129.05
2018-07-17T01:22:23.091Z,98134.57
2018-07-17T01:24:51.335Z,98132.45
2018-07-17T01:27:20.579Z,98129.02
2018-07-17T01:29:49.277Z,98130.98
2018-07-17T01:32:18.383Z,98134.27
2018-07-17T01:34:46.986Z,98128.52
2018-07-17T01:37:16.208Z,98127.38
2018-07-17T01:39:44.506Z,98128.72
2018-07-17T01:42:13.514Z,98123.98
2018-07-17T01:44:41.956Z,98126.93
2018-07-17T01:47:10.325Z,98120.73
2018-07-17T01:49:40.166Z,98124.52
2018-07-17T01:52:08.389Z,98123.21
2018-07-17T01:54:36.803Z,98117.83
2018-07-17T01:57:05.628Z,98120.94
2018-07-17T01:59:34.688Z,98123.38
2018-07-17T02:02:04.353Z,98128.59
2018-07-17T02:04:32.548Z,98130.34
2018-07-17T02:07:00.801Z,98130.00
2018-07-17T02:09:29.544Z,98121.84
2018-07-17T02:11:57.865Z,98128.69
2018-07-17T02:14:26.350Z,98132.42
2018-07-17T02:16:54.953Z,98125.08
2018-07-17T02:19:23.285Z,98122.15
2018-07-17T02:21:51.476Z,98124.41
2018-07-17T02:24:19.986Z,98126.87
2018-07-17T02:26:48.166Z,98131.10
2018-07-17T02:29:16.700Z,98128.03
2018-07-17T02:31:44.942Z,98127.05
2018-07-17T02:34:13.138Z,98133.72
2018-07-17T02:36:41.456Z,98134.52
2018-07-17T02:39:09.650Z,98136.47
2018-07-17T02:41:37.984Z,98133.85
2018-07-17T02:44:06.875Z,98143.12
2018-07-17T02:46:35.353Z,98142.28
2018-07-17T02:49:03.949Z,98141.94
2018-07-17T02:51:32.277Z,98145.34
2018-07-17T02:54:00.690Z,98138.98
2018-07-17T02:56:28.999Z,98141.88
2018-07-17T02:58:57.558Z,98145.93
2018-07-17T03:01:26.797Z,98145.45
2018-07-17T03:03:55.326Z,98149.19
2018-07-17T03:06:23.868Z,98147.06
2018-07-17T03:08:52.226Z,98149.33
2018-07-17T03:11:20.433Z,98151.59
2018-07-17T03:13:48.636Z,98154.53
2018-07-17T03:16:17.315Z,98157.13
2018-07-17T03:18:45.631Z,98161.38
2018-07-17T03:21:14.207Z,98165.28
2018-07-17T03:23:42.603Z,98165.91
2018-07-17T03:26:11.345Z,98167.33
2018-07-17T03:28:39.543Z,98173.63
2018-07-17T03:31:08.623Z,98176.55
2018-07-17T03:33:36.885Z,98176.77
2018-07-17T03:36:05.393Z,98184.72
2018-07-17T03:38:33.708Z,98179.83
2018-07-17T03:41:01.957Z,98181.77
2018-07-17T03:43:30.480Z,98186.36
2018-07-17T03:45:58.705Z,98184.33
2018-07-17T03:48:27.732Z,98183.04
2018-07-17T03:50:55.996Z,98182.39
2018-07-17T03:53:25.417Z,98184.03
2018-07-17T03:55:55.500Z,98176.70
2018-07-17T03:58:24.355Z,98183.20
2018-07-17T04:00:53.571Z,98182.25
2018-07-17T04:03:21.857Z,98185.52
2018-07-17T04:05:50.096Z,98189.25
2018-07-17T04:08:18.338Z,98188.29
2018-07-17T04:10:47.308Z,98196.93
2018-07-17T04:13:15.485Z,98200.38
2018-07-17T04:15:44.334Z,98208.05
2018-07-17T04:18:13.240Z,98206.06
2018-07-17T04:20:41.582Z,98198.73
2018-07-17T04:23:10.805Z,98197.63
2018-07-17T04:25:39.203Z,98202.23
2018-07-17T04:28:07.902Z,98196.98
2018-07-17T04:30:36.835Z,98197.66
2018-07-17T04:33:05.577Z,98202.53
2018-07-17T04:35:34.428Z,98210.04
2018-07-17T04:38:02.957Z,98212.01
2018-07-17T04:40:31.515Z,98211.48
2018-07-17T04:43:00.537Z,98216.22
2018-07-17T04:45:28.800Z,98216.24
2018-07-17T04:47:57.671Z,98219.03
2018-07-17T04:50:25.948Z,98216.99
2018-07-17T04:52:55.001Z,98218.23
2018-07-17T04:55:23.501Z,98217.80
2018-07-17T04:57:52.498Z,98223.55
2018-07-17T05:00:20.988Z,98225.04
2018-07-17T05:02:49.192Z,98224.87
2018-07-17T05:05:17.513Z,98232.41
2018-07-17T05:07:46.018Z,98225.72
2018-07-17T05:10:15.707Z,98218.70
2018-07-17T05:12:44.690Z,98228.82
2018-07-17T05:15:13.010Z,98232.87
2018-07-17T05:17:41.308Z,98235.48
2018-07-17T05:20:10.466Z,98235.48
2018-07-17T05:22:38.736Z,98228.83
2018-07-17T05:25:07.675Z,98234.98
2018-07-17T05:27:36.432Z,98233.34
2018-07-17T05:30:05.666Z,98233.97
2018-07-17T05:32:34.748Z,98231.16
2018-07-17T05:35:03.393Z,98231.30
2018-07-17T05:37:31.813Z,98235.17
2018-07-17T05:40:00.052Z,98238.70
2018-07-17T05:42:30.163Z,98240.26
2018-07-17T05:44:58.496Z,98238.91
2018-07-17T05:47:27.546Z,98239.08
2018-07-17T05:49:55.808Z,98244.05
2018-07-17T05:52:25.472Z,98251.89
2018-07-17T05:54:53.784Z,98249.89
2018-07-17T05:57:22.868Z,98249.88
2018-07-17T05:59:51.248Z,98249.61
2018-07-17T06:02:19.736Z,98249.14
2018-07-17T06:04:48.817Z,98252.83
2018-07-17T06:07:17.499Z,98251.16
2018-07-17T06:09:45.780Z,98247.65
2018-07-17T06:12:14.389Z,98243.52
2018-07-17T06:14:42.997Z,98247.68
2018-07-17T06:17:11.537Z,98243.62
2018-07-17T06:19:40.556Z,98244.59
2018-07-17T06:22:09.057Z,98246.91
2018-07-17T06:24:37.360Z,98252.77
2018-07-17T06:27:06.187Z,98244.62
2018-07-17T06:29:34.689Z,98250.75
2018-07-17T06:32:04.525Z,98248.09
2018-07-17T06:34:32.880Z,98241.61
2018-07-17T06:37:02.848Z,98242.97
2018-07-17T06:39:31.257Z,98237.20
2018-07-17T06:41:59.537Z,98241.81
2018-07-17T06:44:28.358Z,98238.81
2018-07-17T06:46:57.337Z,98239.45
2018-07-17T06:49:26.211Z,98239.45
2018-07-17T06:51:55.262Z,98239.26
2018-07-17T06:54:23.542Z,98246.53
2018-07-17T06:56:51.876Z,98241.56
2018-07-17T06:59:20.359Z,98241.47
2018-07-17T07:01:49.332Z,98246.18
2018-07-17T07:04:18.280Z,98247.45
2018-07-17T07:06:46.860Z,98245.41
2018-07-17T07:09:15.132Z,98252.59
2018-07-17T07:11:43.324Z,98245.00
2018-07-17T07:14:11.618Z,98248.81
2018-07-17T07:16:40.648Z,98239.39
2018-07-17T07:19:09.172Z,98247.75
2018-07-17T07:21:37.474Z,98241.67
2018-07-17T07:24:05.933Z,98240.69
2018-07-17T07:26:35.110Z,98239.19
2018-07-17T07:29:03.448Z,98247.19
2018-07-17T07:31:31.712Z,98243.75
2018-07-17T07:34:00.665Z,98242.23
2018-07-17T07:36:29.290Z,98241.95
2018-07-17T07:38:57.976Z,98246.28
2018-07-17T07:41:26.367Z,98242.55
2018-07-17T07:43:55.522Z,98239.28
2018-07-17T07:46:25.288Z,98246.16
2018-07-17T07:48:54.474Z,98237.31
2018-07-17T07:51:23.940Z,98237.86
2018-07-17T07:53:52.548Z,98239.55
2018-07-17T07:56:20.801Z,98237.91
2018-07-17T07:58:49.225Z,98237.52
2018-07-17T08:01:17.910Z,98246.44
2018-07-17T08:03:49.470Z,98245.39
2018-07-17T08:06:18.111Z,98249.47
2018-07-17T08:08:46.576Z,98247.08
2018-07-17T08:11:15.108Z,98253.03
2018-07-17T08:13:43.357Z,98243.94
2018-07-17T08:16:11.709Z,98250.20
2018-07-17T08:18:40.021Z,98244.28
2018-07-17T08:21:09.236Z,98247.30
2018-07-17T08:23:37.548Z,98243.98
2018-07-17T08:26:06.101Z,98243.06
2018-07-17T08:28:34.618Z,98250.59
2018-07-17T08:31:03.413Z,98248.81
2018-07-17T08:33:31.831Z,98237.47
2018-07-17T08:36:01.369Z,98245.45
2018-07-17T08:38:30.328Z,98252.86
2018-07-17T08:40:59.051Z,98250.89
2018-07-17T08:43:27.479Z,98255.58
2018-07-17T08:45:57.315Z,98249.30
2018-07-17T08:48:25.649Z,98257.89
2018-07-17T08:50:53.877Z,98252.70
2018-07-17T08:53:22.159Z,98255.51
2018-07-17T08:55:50.557Z,98254.71
2018-07-17T08:58:19.513Z,98258.22
2018-07-17T09:00:49.208Z,98253.72
2018-07-17T09:03:17.926Z,98249.72
2018-07-17T09:05:46.923Z,98261.23
2018-07-17T09:08:15.801Z,98259.30
2018-07-17T09:10:44.900Z,98253.35
2018-07-17T09:13:13.624Z,98258.95
2018-07-17T09:15:42.084Z,98259.30
2018-07-17T09:18:10.968Z,98253.78
2018-07-17T09:20:39.540Z,98254.09
2018-07-17T09:23:08.136Z,98260.14
2018-07-17T09:25:37.341Z,98257.98
2018-07-17T09:28:06.236Z,98261.34
2018-07-17T09:30:40.780Z,98257.10
2018-07-17T09:33:09.320Z,98257.08
2018-07-17T09:35:37.573Z,98255.78
2018-07-17T09:38:07.041Z,98259.77
2018-07-17T09:40:35.569Z,98250.34
2018-07-17T09:43:04.059Z,98257.00
2018-07-17T09:45:32.538Z,98256.95
2018-07-17T09:48:01.541Z,98258.88
2018-07-17T09:50:30.050Z,98251.26
2018-07-17T09:52:59.088Z,98247.41
2018-07-17T09:55:27.808Z,98259.20
2018-07-17T09:57:56.370Z,98250.98
2018-07-17T10:00:31.115Z,98254.55
2018-07-17T10:02:59.681Z,98251.23
2018-07-17T10:05:29.188Z,98246.34
2018-07-17T10:07:57.906Z,98243.84
2018-07-17T10:10:26.148Z,98243.22
2018-07-17T10:12:54.697Z,98242.22
2018-07-17T10:15:22.973Z,98245.95
2018-07-17T10:17:52.745Z,98246.19
2018-07-17T10:20:21.801Z,98249.80
2018-07-17T10:22:50.545Z,98251.78
2018-07-17T10:25:19.037Z,98243.17
2018-07-17T10:27:47.903Z,98241.88
2018-07-17T10:30:16.574Z,98244.10
2018-07-17T10:32:45.024Z,98242.05
2018-07-17T10:35:13.586Z,98236.45
2018-07-17T10:37:41.904Z,98237.08
2018-07-17T10:40:10.168Z,98232.69
2018-07-17T10:42:38.383Z,98235.83
2018-07-17T10:45:07.434Z,98232.92
2018-07-17T10:47:35.781Z,98232.83
2018-07-17T10:50:04.116Z,98237.06
2018-07-17T10:52:32.964Z,98226.84
2018-07-17T10:55:01.937Z,98222.89
2018-07-17T10:57:30.456Z,98218.52
2018-07-17T10:59:58.656Z,98225.94
2018-07-17T11:02:27.274Z,98222.20
2018-07-17T11:04:58.375Z,98214.25
2018-07-17T11:07:27.281Z,98213.30
2018-07-17T11:09:55.945Z,98209.86
2018-07-17T11:12:24.896Z,98210.63
2018-07-17T11:14:53.577Z,98211.32
2018-07-17T11:17:23.394Z,98214.77
2018-07-17T11:19:51.812Z,98211.36
2018-07-17T11:22:20.253Z,98210.34
2018-07-17T11:24:49.658Z,98223.28
2018-07-17T11:27:18.207Z,98216.63
2018-07-17T11:29:46.763Z,98223.23
2018-07-17T11:32:15.446Z,98206.25
2018-07-17T11:34:44.051Z,98193.31
2018-07-17T11:37:12.401Z,98199.76
2018-07-17T11:39:40.677Z,98199.43
2018-07-17T11:42:09.042Z,98205.89
2018-07-17T11:44:37.370Z,98208.06
2018-07-17T11:47:05.562Z,98208.41
2018-07-17T11:49:34.197Z,98193.61
2018-07-17T11:52:02.985Z,98196.31
2018-07-17T11:54:31.334Z,98191.25
2018-07-17T11:57:00.189Z,98194.52
2018-07-17T11:59:28.530Z,98210.28
2018-07-17T12:01:56.990Z,98187.37
2018-07-17T12:04:25.262Z,98194.48
2018-07-17T12:06:54.292Z,98202.75
2018-07-17T12:09:23.187Z,98181.59
2018-07-17T12:11:51.709Z,98185.27
2018-07-17T12:14:20.573Z,98173.77
2018-07-17T12:16:49.736Z,98174.52
2018-07-17T12:19:18.127Z,98180.99
2018-07-17T12:21:46.853Z,98182.80
2018-07-17T12:24:15.449Z,98187.42
2018-07-17T12:26:43.951Z,98179.92
2018-07-17T12:29:12.284Z,98177.16
2018-07-17T12:31:40.519Z,98180.72
2018-07-17T12:34:10.052Z,98177.88
2018-07-17T12:36:38.771Z,98175.34
2018-07-17T12:39:09.429Z,98185.56
2018-07-17T12:41:37.889Z,98176.73
2018-07-17T12:44:06.457Z,98175.86
2018-07-17T12:46:34.807Z,98182.20
2018-07-17T12:49:03.745Z,98185.61
2018-07-17T12:51:32.081Z,98180.30
2018-07-17T12:54:00.495Z,98180.14
2018-07-17T12:56:28.784Z,98183.15
2018-07-17T12:58:57.185Z,98173.02
2018-07-17T13:01:25.520Z,98188.45
2018-07-17T13:03:54.010Z,98190.52
2018-07-17T13:06:22.426Z,98184.30
2018-07-17T13:08:50.605Z,98183.84
2018-07-17T13:11:18.914Z,98184.91
2018-07-17T13:13:47.082Z,98185.78
2018-07-17T13:16:15.328Z,98185.03
2018-07-17T13:18:43.689Z,98187.34
2018-07-17T13:21:11.924Z,98187.38
2018-07-17T13:23:40.542Z,98181.50
2018-07-17T13:26:08.881Z,98190.89
2018-07-17T13:28:37.341Z,98182.70
2018-07-17T13:31:05.809Z,98190.03
2018-07-17T13:33:34.308Z,98199.48
2018-07-17T13:36:02.496Z,98201.98
2018-07-17T13:38:30.671Z,98203.91
2018-07-17T13:40:59.151Z,98202.87
2018-07-17T13:43:27.734Z,98203.26
2018-07-17T13:45:55.907Z,98214.23
2018-07-17T13:48:24.621Z,98219.76
2018-07-17T13:50:52.832Z,98217.39
2018-07-17T13:53:21.608Z,98239.25
2018-07-17T13:55:50.009Z,98238.97
2018-07-17T13:58:18.726Z,98235.13
2018-07-17T14:00:47.325Z,98246.47
2018-07-17T14:03:15.701Z,98260.81
2018-07-17T14:05:44.901Z,98253.70
2018-07-17T14:08:13.337Z,98248.08
2018-07-17T14:10:42.017Z,98249.70
2018-07-17T14:13:10.655Z,98262.09
2018-07-17T14:15:39.084Z,98255.02
2018-07-17T14:18:07.417Z,98258.27
2018-07-17T14:20:36.088Z,98261.48
2018-07-17T14:23:04.640Z,98275.06
2018-07-17T14:25:32.957Z,98269.38
2018-07-17T14:28:01.858Z,98268.79
2018-07-17T14:30:30.453Z,98279.48
2018-07-17T14:32:58.620Z,98277.55
2018-07-17T14:35:26.879Z,98285.92
2018-07-17T14:37:55.352Z,98280.81
2018-07-17T14:40:23.685Z,98278.83
2018-07-17T14:42:53.330Z,98281.36
2018-07-17T14:45:22.248Z,98281.60
2018-07-17T14:47:50.816Z,98277.80
2018-07-17T14:50:21.520Z,98289.27
2018-07-17T14:52:49.740Z,98278.64
2018-07-17T14:55:18.067Z,98272.64
2018-07-17T14:57:46.912Z,98264.91
2018-07-17T15:00:15.843Z,98271.77
2018-07-17T15:02:44.556Z,98275.12
2018-07-17T15:05:12.826Z,98291.64
2018-07-17T15:07:41.145Z,98278.89
2018-07-17T15:10:11.848Z,98272.27
2018-07-17T15:12:40.117Z,98275.72
2018-07-17T15:15:08.659Z,98271.50
2018-07-17T15:17:38.135Z,98265.80
2018-07-17T15:20:06.440Z,98260.27
2018-07-17T15:22:35.377Z,98261.12
2018-07-17T15:25:03.989Z,98266.39
2018-07-17T15:27:32.192Z,98253.81
2018-07-17T15:30:00.813Z,98258.53
2018-07-17T15:32:29.293Z,98251.42
2018-07-17T15:34:58.458Z,98254.66
2018-07-17T15:37:27.280Z,98247.58
2018-07-17T15:39:55.850Z,98243.36
2018-07-17T15:42:24.452Z,98248.31
2018-07-17T15:44:52.786Z,98247.09
2018-07-17T15:47:21.076Z,98245.88
2018-07-17T15:49:49.369Z,98244.43
2018-07-17T15:52:17.989Z,98238.13
2018-07-17T15:54:46.369Z,98245.11
2018-07-17T15:57:15.243Z,98237.31
2018-07-17T15:59:44.045Z,98240.68
2018-07-17T16:02:12.419Z,98239.60
2018-07-17T16:04:41.278Z,98231.47
2018-07-17T16:07:09.633Z,98228.91
2018-07-17T16:09:38.140Z,98226.16
2018-07-17T16:12:06.721Z,98226.01
2018-07-17T16:14:35.761Z,98219.91
2018-07-17T16:17:04.412Z,98220.68
2018-07-17T16:19:33.256Z,98224.80
2018-07-17T16:22:02.758Z,98226.32
2018-07-17T16:24:31.032Z,98222.55
2018-07-17T16:26:59.273Z,98224.02
2018-07-17T16:29:27.957Z,98218.74
2018-07-17T16:31:56.724Z,98218.59
2018-07-17T16:34:25.021Z,98218.57
2018-07-17T16:36:53.447Z,98219.80
2018-07-17T16:39:21.815Z,98221.70
2018-07-17T16:41:50.159Z,98218.89
2018-07-17T16:44:18.435Z,98218.89
2018-07-17T16:46:46.940Z,98228.30
2018-07-17T16:49:16.047Z,98222.11
2018-07-17T16:51:45.931Z,98224.33
2018-07-17T16:54:14.320Z,98228.92
2018-07-17T16:56:43.104Z,98235.94
2018-07-17T16:59:12.703Z,98230.59
2018-07-17T17:01:42.001Z,98230.78
2018-07-17T17:04:10.707Z,98227.05
2018-07-17T17:06:39.306Z,98233.50
2018-07-17T17:09:11.210Z,98235.27
2018-07-17T17:11:39.983Z,98239.99
2018-07-17T17:14:09.435Z,98241.33
2018-07-17T17:16:37.665Z,98240.91
2018-07-17T17:19:06.431Z,98242.72
2018-07-17T17:21:35.315Z,98240.05
2018-07-17T17:24:04.599Z,98241.36
2018-07-17T17:26:33.631Z,98248.00
2018-07-17T17:29:01.940Z,98242.73
2018-07-17T17:31:30.432Z,98242.49
2018-07-17T17:33:58.641Z,98243.53
2018-07-17T17:36:27.962Z,98248.66
2018-07-17T17:38:56.133Z,98248.83
2018-07-17T17:41:24.729Z,98250.22
2018-07-17T17:43:53.078Z,98251.17
2018-07-17T17:46:21.386Z,98255.08
2018-07-17T17:48:49.861Z,98254.33
2018-07-17T17:51:18.176Z,98254.50
2018-07-17T17:53:46.418Z,98256.16
2018-07-17T17:56:14.861Z,98261.17
2018-07-17T17:58:43.026Z,98255.51
2018-07-17T18:01:11.409Z,98257.66
2018-07-17T18:03:39.852Z,98254.56
2018-07-17T18:06:08.544Z,98262.81
2018-07-17T18:08:36.830Z,98267.31
2018-07-17T18:11:05.644Z,98271.06
2018-07-17T18:13:34.073Z,98271.33
2018-07-17T18:16:02.411Z,98272.42
2018-07-17T18:18:30.897Z,98277.08
2018-07-17T18:20:59.208Z,98280.78
2018-07-17T18:23:27.556Z,98289.02
2018-07-17T18:25:56.183Z,98284.70
2018-07-17T18:28:24.608Z,98290.27
2018-07-17T18:30:52.889Z,98294.02
2018-07-17T18:33:21.278Z,98304.45
2018-07-17T18:35:49.553Z,98304.11
2018-07-17T18:38:18.229Z,98306.59
2018-07-17T18:40:46.720Z,98308.55
2018-07-17T18:43:15.203Z,98307.11
2018-07-17T18:45:43.697Z,98314.25
2018-07-17T18:48:12.475Z,98331.53
2018-07-17T18:50:41.278Z,98327.59
2018-07-17T18:53:10.347Z,98326.48
2018-07-17T18:55:39.039Z,98333.05
2018-07-17T18:58:08.076Z,98334.88
2018-07-17T19:00:37.532Z,98344.02
2018-07-17T19:03:06.061Z,98349.52
2018-07-17T19:05:34.494Z,98345.61
2018-07-17T19:08:03.035Z,98344.60
2018-07-17T19:10:31.398Z,98350.62
2018-07-17T19:13:00.086Z,98351.80
2018-07-17T19:15:28.443Z,98344.35
2018-07-17T19:17:57.168Z,98355.98
2018-07-17T19:20:25.737Z,98352.71
2018-07-17T19:22:54.019Z,98354.73
2018-07-17T19:25:22.755Z,98363.57
2018-07-17T19:27:51.929Z,98359.57
2018-07-17T19:30:20.125Z,98366.05
2018-07-17T19:32:48.449Z,98366.81
2018-07-17T19:35:17.313Z,98371.36
2018-07-17T19:37:45.588Z,98372.67
2018-07-17T19:40:14.297Z,98372.88
2018-07-17T19:42:42.841Z,98381.88
2018-07-17T19:45:11.195Z,98372.50
2018-07-17T19:47:40.550Z,98375.71
2018-07-17T19:50:08.776Z,98360.88
2018-07-17T19:52:37.971Z,98372.70
2018-07-17T19:55:06.931Z,98364.17
2018-07-17T19:57:35.535Z,98370.56
2018-07-17T20:00:05.042Z,98368.84
2018-07-17T20:02:33.596Z,98369.13
2018-07-17T20:05:01.914Z,98373.74
2018-07-17T20:07:30.266Z,98373.37
2018-07-17T20:09:58.907Z,98370.50
2018-07-17T20:12:27.872Z,98372.47
2018-07-17T20:14:56.436Z,98367.88
2018-07-17T20:17:24.952Z,98372.69
2018-07-17T20:19:53.811Z,98367.22
2018-07-17T20:22:22.430Z,98370.08
2018-07-17T20:24:50.666Z,98372.09
2018-07-17T20:27:22.412Z,98369.64
2018-07-17T20:29:51.941Z,98378.33
2018-07-17T20:32:20.229Z,98371.07
2018-07-17T20:34:48.590Z,98383.34
2018-07-17T20:37:16.812Z,98383.95
2018-07-17T20:39:45.557Z,98393.23
2018-07-17T20:42:13.857Z,98389.50
2018-07-17T20:44:43.169Z,98391.22
2018-07-17T20:47:12.464Z,98396.83
2018-07-17T20:49:41.505Z,98396.19
2018-07-17T20:52:10.537Z,98401.19
2018-07-17T20:54:38.807Z,98399.66
2018-07-17T20:57:07.422Z,98402.41
2018-07-17T20:59:36.376Z,98407.09
2018-07-17T21:02:05.605Z,98405.12
2018-07-17T21:04:35.171Z,98407.23
2018-07-17T21:07:03.895Z,98414.81
2018-07-17T21:09:32.142Z,98409.98
2018-07-17T21:12:00.656Z,98411.30
2018-07-17T21:14:28.976Z,98416.74
2018-07-17T21:16:57.302Z,98413.47
2018-07-17T21:19:25.824Z,98421.45
2018-07-17T21:21:54.280Z,98424.34
2018-07-17T21:24:24.254Z,98434.84
2018-07-17T21:26:52.497Z,98453.95
2018-07-17T21:29:21.363Z,98445.00
2018-07-17T21:31:49.620Z,98444.06
2018-07-17T21:34:17.984Z,98442.16
2018-07-17T21:36:46.359Z,98439.12
2018-07-17T21:39:14.592Z,98439.80
2018-07-17T21:41:45.176Z,98440.58
2018-07-17T21:44:17.066Z,98444.55
2018-07-17T21:46:48.020Z,98444.88
2018-07-17T21:49:18.707Z,98438.75
2018-07-17T21:51:50.859Z,98430.80
2018-07-17T21:54:19.448Z,98432.30
2018-07-17T21:56:47.653Z,98437.91
2018-07-17T21:59:15.892Z,98430.04
2018-07-17T22:01:44.193Z,98430.66
2018-07-17T22:04:12.898Z,98432.13
2018-07-17T22:06:41.385Z,98424.04
2018-07-17T22:09:11.981Z,98416.14
2018-07-17T22:11:41.004Z,98413.52
2018-07-17T22:14:09.531Z,98415.33
2018-07-17T22:16:38.130Z,98414.83
2018-07-17T22:19:06.648Z,98418.99
2018-07-17T22:21:34.860Z,98424.53
2018-07-17T22:24:03.386Z,98422.08
2018-07-17T22:26:31.831Z,98418.80
2018-07-17T22:29:00.546Z,98415.23
2018-07-17T22:31:29.167Z,98414.50
2018-07-17T22:33:57.402Z,98408.05
2018-07-17T22:36:26.266Z,98409.49
2018-07-17T22:38:55.122Z,98405.95
2018-07-17T22:41:23.670Z,98412.27
2018-07-17T22:43:51.980Z,98404.70
2018-07-17T22:46:20.207Z,98414.29
2018-07-17T22:48:48.825Z,98410.85
2018-07-17T22:51:17.386Z,98422.45
2018-07-17T22:53:45.971Z,98426.22
2018-07-17T22:56:14.310Z,98427.30
2018-07-17T22:58:42.680Z,98427.63
2018-07-17T23:01:11.076Z,98428.64
2018-07-17T23:03:39.378Z,98430.80
2018-07-17T23:06:08.248Z,98427.31
2018-07-17T23:08:36.455Z,98427.05
2018-07-17T23:11:05.111Z,98423.95
2018-07-17T23:13:33.307Z,98425.28
2018-07-17T23:16:01.481Z,98423.87
2018-07-17T23:18:30.253Z,98424.39
2018-07-17T23:20:58.590Z,98430.33
2018-07-17T23:23:27.098Z,98432.68
2018-07-17T23:25:55.632Z,98437.97
2018-07-17T23:28:23.891Z,98437.06
2018-07-17T23:30:52.085Z,98439.89
2018-07-17T23:33:20.344Z,98448.72
2018-07-17T23:35:48.546Z,98443.98
2018-07-17T23:38:17.076Z,98443.64
2018-07-17T23:40:45.325Z,98451.85
2018-07-17T23:43:14.123Z,98445.67
2018-07-17T23:45:42.958Z,98454.55
2018-07-17T23:48:11.891Z,98450.27
2018-07-17T23:50:40.834Z,98455.36
2018-07-17T23:53:09.391Z,98449.02
2018-07-17T23:55:39.072Z,98466.98
2018-07-17T23:58:07.453Z,98467.62
